createdAt,value
2022-08-22T00:00:13.450Z,1.83
2022-08-22T00:02:45.363Z,1.93
2022-08-22T00:03:04.492Z,2.33
2022-08-22T00:03:07.476Z,1.90
2022-08-22T00:03:07.478Z,2.00
2022-08-22T00:05:51.150Z,1.63
2022-08-22T00:08:26.229Z,1.67
2022-08-22T00:11:02.649Z,2.17
2022-08-22T00:13:37.249Z,1.80
2022-08-22T00:16:12.389Z,2.00
2022-08-22T00:18:49.707Z,1.90
2022-08-22T00:21:22.910Z,2.00
2022-08-22T00:23:57.453Z,2.00
2022-08-22T00:26:42.182Z,2.03
2022-08-22T00:29:18.733Z,2.17
2022-08-22T00:31:51.927Z,2.13
2022-08-22T00:34:31.076Z,1.80
2022-08-22T00:37:04.168Z,2.17
2022-08-22T00:39:37.721Z,1.97
2022-08-22T00:42:31.516Z,1.90
2022-08-22T00:45:46.872Z,1.97
2022-08-22T00:48:28.752Z,2.00
2022-08-22T00:51:25.013Z,1.97
2022-08-22T00:53:57.169Z,2.10
2022-08-22T00:56:53.228Z,2.00
2022-08-22T00:59:50.200Z,2.10
2022-08-22T01:02:32.996Z,2.00
2022-08-22T01:05:31.093Z,2.20
2022-08-22T01:08:18.090Z,2.27
2022-08-22T01:11:03.715Z,2.10
2022-08-22T01:13:53.610Z,1.90
2022-08-22T01:16:47.822Z,2.27
2022-08-22T01:19:59.477Z,1.90
2022-08-22T01:23:23.117Z,2.00
2022-08-22T01:26:54.229Z,1.90
2022-08-22T01:30:00.262Z,2.07
2022-08-22T01:33:09.659Z,1.73
2022-08-22T01:36:15.845Z,2.30
2022-08-22T01:39:03.833Z,2.10
2022-08-22T01:41:48.621Z,1.80
2022-08-22T01:44:34.602Z,1.80
2022-08-22T01:47:07.085Z,2.00
2022-08-22T01:49:42.624Z,1.70
2022-08-22T01:52:17.869Z,2.00
2022-08-22T01:54:55.003Z,1.83
2022-08-22T01:57:24.961Z,1.97
2022-08-22T01:59:57.054Z,1.80
2022-08-22T02:02:57.349Z,2.00
2022-08-22T02:05:31.708Z,1.77
2022-08-22T02:08:06.681Z,2.10
2022-08-22T02:10:56.327Z,2.00
2022-08-22T02:13:37.197Z,1.70
2022-08-22T02:16:12.036Z,2.00
2022-08-22T02:18:53.813Z,1.80
2022-08-22T02:21:27.648Z,2.10
2022-08-22T02:24:03.256Z,1.90
2022-08-22T02:26:51.304Z,1.87
2022-08-22T02:29:24.633Z,2.00
2022-08-22T02:31:57.448Z,1.90
2022-08-22T02:34:34.887Z,2.10
2022-08-22T02:37:10.744Z,2.10
2022-08-22T02:39:47.398Z,1.93
2022-08-22T02:42:27.492Z,2.10
2022-08-22T02:45:05.012Z,2.27
2022-08-22T02:47:40.224Z,2.03
2022-08-22T02:50:18.752Z,1.80
2022-08-22T02:52:59.813Z,1.67
2022-08-22T02:55:43.537Z,1.97
2022-08-22T02:58:21.009Z,2.17
2022-08-22T03:00:52.060Z,2.17
2022-08-22T03:03:25.255Z,2.10
2022-08-22T03:06:01.630Z,2.20
2022-08-22T03:08:32.599Z,2.40
2022-08-22T03:11:12.366Z,1.97
2022-08-22T03:13:54.928Z,1.93
2022-08-22T03:16:29.651Z,2.07
2022-08-22T03:19:04.152Z,2.20
2022-08-22T03:21:38.048Z,2.03
2022-08-22T03:24:12.471Z,2.30
2022-08-22T03:26:49.335Z,2.20
2022-08-22T03:29:21.623Z,1.93
2022-08-22T03:32:13.540Z,2.10
2022-08-22T03:34:56.339Z,2.87
2022-08-22T03:37:32.947Z,2.30
2022-08-22T03:40:07.840Z,2.20
2022-08-22T03:43:11.639Z,2.10
2022-08-22T03:46:10.588Z,2.03
2022-08-22T03:49:23.448Z,2.10
2022-08-22T03:52:16.167Z,2.20
2022-08-22T03:55:17.673Z,2.27
2022-08-22T03:58:23.893Z,1.87
2022-08-22T04:01:35.775Z,2.07
2022-08-22T04:04:42.554Z,2.00
2022-08-22T04:07:43.825Z,2.20
2022-08-22T04:10:32.266Z,2.30
2022-08-22T04:13:25.029Z,1.93
2022-08-22T04:16:20.713Z,2.43
2022-08-22T04:19:16.432Z,2.07
2022-08-22T04:22:14.016Z,2.17
2022-08-22T04:24:52.472Z,2.40
2022-08-22T04:27:25.526Z,2.03
2022-08-22T04:29:59.747Z,2.40
2022-08-22T04:32:34.274Z,2.47
2022-08-22T04:35:10.054Z,2.27
2022-08-22T04:37:48.183Z,2.60
2022-08-22T04:40:23.079Z,2.50
2022-08-22T04:42:57.002Z,2.30
2022-08-22T04:45:30.463Z,2.47
2022-08-22T04:48:06.478Z,2.40
2022-08-22T04:50:43.303Z,2.63
2022-08-22T04:53:24.634Z,2.17
2022-08-22T04:56:07.098Z,2.50
2022-08-22T04:58:46.979Z,2.90
2022-08-22T05:01:19.026Z,2.57
2022-08-22T05:03:53.646Z,2.90
2022-08-22T05:06:28.665Z,2.67
2022-08-22T05:09:01.965Z,2.60
2022-08-22T05:11:32.473Z,2.90
2022-08-22T05:14:05.169Z,2.80
2022-08-22T05:16:38.166Z,3.10
2022-08-22T05:19:14.430Z,3.30
2022-08-22T05:21:47.986Z,3.10
2022-08-22T05:24:28.002Z,2.80
2022-08-22T05:27:00.895Z,3.13
2022-08-22T05:29:31.921Z,3.07
2022-08-22T05:32:04.581Z,2.90
2022-08-22T05:34:37.369Z,2.80
2022-08-22T05:37:13.083Z,3.07
2022-08-22T05:39:47.033Z,2.73
2022-08-22T05:42:19.797Z,2.60
2022-08-22T05:44:47.925Z,2.50
2022-08-22T05:47:23.552Z,2.40
2022-08-22T05:50:01.029Z,2.77
2022-08-22T05:52:43.552Z,2.50
2022-08-22T05:55:22.658Z,2.93
2022-08-22T05:58:00.589Z,2.80
2022-08-22T06:00:33.448Z,2.50
2022-08-22T06:03:14.431Z,2.33
2022-08-22T06:05:48.056Z,2.70
2022-08-22T06:08:23.392Z,2.60
2022-08-22T06:10:54.985Z,2.67
2022-08-22T06:13:32.528Z,2.27
2022-08-22T06:16:10.344Z,2.40
2022-08-22T06:18:41.998Z,2.20
2022-08-22T06:21:14.432Z,2.23
2022-08-22T06:23:47.428Z,2.50
2022-08-22T06:26:20.570Z,2.50
2022-08-22T06:28:55.293Z,2.33
2022-08-22T06:31:30.229Z,2.20
2022-08-22T06:34:05.899Z,2.33
2022-08-22T06:36:36.480Z,2.30
2022-08-22T06:39:13.028Z,2.10
2022-08-22T06:41:46.044Z,2.20
2022-08-22T06:44:17.288Z,2.30
2022-08-22T06:46:47.476Z,2.50
2022-08-22T06:49:16.728Z,2.30
2022-08-22T06:51:45.999Z,2.10
2022-08-22T06:54:20.057Z,2.10
2022-08-22T06:56:51.983Z,2.00
2022-08-22T06:59:24.294Z,2.07
2022-08-22T07:01:56.216Z,2.20
2022-08-22T07:04:27.195Z,2.10
2022-08-22T07:06:58.204Z,2.00
2022-08-22T07:09:30.182Z,2.40
2022-08-22T07:12:02.051Z,2.00
2022-08-22T07:14:33.122Z,2.00
2022-08-22T07:17:04.355Z,1.90
2022-08-22T07:19:35.539Z,2.20
2022-08-22T07:22:13.114Z,1.90
2022-08-22T07:24:48.253Z,2.00
2022-08-22T07:27:33.304Z,2.00
2022-08-22T07:30:06.897Z,2.13
2022-08-22T07:32:48.463Z,1.90
2022-08-22T07:35:20.911Z,1.90
2022-08-22T07:38:00.389Z,1.83
2022-08-22T07:40:37.365Z,2.10
2022-08-22T07:43:16.547Z,1.75
2022-08-22T07:45:49.747Z,1.70
2022-08-22T07:48:31.123Z,1.80
2022-08-22T07:51:07.047Z,1.55
2022-08-22T07:53:42.607Z,1.90
2022-08-22T07:56:17.731Z,2.10
2022-08-22T07:58:49.175Z,1.90
2022-08-22T08:01:20.194Z,1.93
2022-08-22T08:03:53.589Z,1.80
2022-08-22T08:06:24.299Z,1.90
2022-08-22T08:08:54.301Z,1.77
2022-08-22T08:11:28.038Z,1.70
2022-08-22T08:14:00.286Z,1.70
2022-08-22T08:16:41.010Z,1.75
2022-08-22T08:19:10.470Z,1.58
2022-08-22T08:21:42.512Z,1.85
2022-08-22T08:24:16.258Z,2.00
2022-08-22T08:27:06.418Z,1.83
2022-08-22T08:29:36.542Z,1.70
2022-08-22T08:32:07.686Z,2.00
2022-08-22T08:34:38.550Z,2.15
2022-08-22T08:37:13.386Z,1.90
2022-08-22T08:39:49.864Z,1.80
2022-08-22T08:42:57.991Z,1.80
2022-08-22T08:45:42.389Z,1.95
2022-08-22T08:48:34.860Z,2.03
2022-08-22T08:51:20.641Z,2.38
2022-08-22T08:54:12.277Z,2.33
2022-08-22T08:56:50.173Z,2.10
2022-08-22T08:59:33.473Z,2.10
2022-08-22T09:02:20.553Z,2.43
2022-08-22T09:05:24.598Z,1.97
2022-08-22T09:08:07.672Z,2.20
2022-08-22T09:11:09.568Z,2.20
2022-08-22T09:13:53.165Z,2.20
2022-08-22T09:16:45.039Z,2.10
2022-08-22T09:20:03.164Z,2.30
2022-08-22T09:23:28.369Z,1.90
2022-08-22T09:26:01.216Z,2.20
2022-08-22T09:28:38.658Z,2.00
2022-08-22T09:31:32.706Z,1.90
2022-08-22T09:34:09.761Z,1.65
2022-08-22T09:36:49.146Z,1.40
2022-08-22T09:39:24.364Z,1.57
2022-08-22T09:42:02.696Z,1.63
2022-08-22T09:44:39.989Z,1.60
2022-08-22T09:47:17.152Z,1.40
2022-08-22T09:50:05.048Z,1.85
2022-08-22T09:52:58.024Z,1.63
2022-08-22T09:55:41.549Z,1.67
2022-08-22T09:58:19.293Z,1.77
2022-08-22T10:00:56.967Z,2.03
2022-08-22T10:03:53.626Z,2.25
2022-08-22T10:06:28.736Z,2.23
2022-08-22T10:09:04.234Z,1.90
2022-08-22T10:11:38.866Z,1.73
2022-08-22T10:14:16.118Z,2.03
2022-08-22T10:17:01.270Z,2.33
2022-08-22T10:19:33.862Z,2.00
2022-08-22T10:22:30.930Z,2.10
2022-08-22T10:25:27.928Z,1.65
2022-08-22T10:28:16.067Z,2.00
2022-08-22T10:31:02.068Z,1.77
2022-08-22T10:33:35.900Z,1.98
2022-08-22T10:36:11.971Z,2.00
2022-08-22T10:38:47.116Z,2.08
2022-08-22T10:41:28.066Z,1.73
2022-08-22T10:44:04.104Z,1.88
2022-08-22T10:46:37.833Z,1.98
2022-08-22T10:49:15.433Z,2.13
2022-08-22T10:51:53.214Z,1.90
2022-08-22T10:54:44.300Z,1.80
2022-08-22T10:57:52.801Z,1.85
2022-08-22T11:00:37.135Z,1.60
2022-08-22T11:03:21.851Z,1.83
2022-08-22T11:05:54.220Z,1.83
2022-08-22T11:08:50.366Z,1.70
2022-08-22T11:11:32.877Z,1.65
2022-08-22T11:14:27.311Z,1.88
2022-08-22T11:17:23.605Z,1.70
2022-08-22T11:20:08.955Z,1.65
2022-08-22T11:22:48.587Z,1.63
2022-08-22T11:25:38.388Z,1.80
2022-08-22T11:28:38.592Z,2.00
2022-08-22T11:31:16.259Z,1.60
2022-08-22T11:33:53.059Z,1.88
2022-08-22T11:36:31.449Z,1.50
2022-08-22T11:39:18.982Z,1.70
2022-08-22T11:41:55.559Z,1.63
2022-08-22T11:44:32.106Z,1.80
2022-08-22T11:47:08.525Z,1.55
2022-08-22T11:49:51.186Z,1.42
2022-08-22T11:52:34.457Z,1.50
2022-08-22T11:55:24.394Z,1.60
2022-08-22T11:57:56.078Z,1.88
2022-08-22T12:00:34.317Z,1.60
2022-08-22T12:03:23.769Z,1.73
2022-08-22T12:05:57.982Z,1.60
2022-08-22T12:09:10.565Z,1.75
2022-08-22T12:11:46.620Z,1.70
2022-08-22T12:14:26.883Z,1.50
2022-08-22T12:17:18.939Z,1.60
2022-08-22T12:20:16.546Z,1.60
2022-08-22T12:23:12.792Z,1.60
2022-08-22T12:26:04.940Z,1.73
2022-08-22T12:28:46.715Z,1.58
2022-08-22T12:31:26.815Z,1.60
2022-08-22T12:34:14.018Z,1.90
2022-08-22T12:36:54.820Z,1.27
2022-08-22T12:39:40.321Z,1.58
2022-08-22T12:42:28.739Z,1.42
2022-08-22T12:45:14.086Z,1.60
2022-08-22T12:47:55.350Z,1.30
2022-08-22T12:50:36.508Z,1.50
2022-08-22T12:53:34.203Z,1.48
2022-08-22T12:56:14.337Z,1.50
2022-08-22T12:59:05.770Z,1.67
2022-08-22T13:01:40.154Z,1.40
2022-08-22T13:04:19.162Z,1.60
2022-08-22T13:07:17.675Z,1.70
2022-08-22T13:09:52.344Z,1.67
2022-08-22T13:12:26.750Z,1.60
2022-08-22T13:14:59.778Z,1.77
2022-08-22T13:17:28.523Z,1.40
2022-08-22T13:20:11.532Z,1.48
2022-08-22T13:22:45.418Z,1.50
2022-08-22T13:25:25.792Z,1.45
2022-08-22T13:27:56.071Z,1.67
2022-08-22T13:30:31.706Z,1.70
2022-08-22T13:33:09.491Z,1.70
2022-08-22T13:35:45.356Z,1.73
2022-08-22T13:38:26.604Z,1.60
2022-08-22T13:40:57.339Z,1.50
2022-08-22T13:43:29.759Z,1.75
2022-08-22T13:46:01.920Z,1.80
2022-08-22T13:48:46.791Z,1.60
2022-08-22T13:51:22.551Z,1.65
2022-08-22T13:54:02.104Z,1.50
2022-08-22T13:56:36.515Z,1.45
2022-08-22T13:59:08.142Z,1.33
2022-08-22T14:01:49.671Z,1.80
2022-08-22T14:04:33.303Z,1.70
2022-08-22T14:07:24.218Z,1.60
2022-08-22T14:09:59.151Z,1.60
2022-08-22T14:12:50.181Z,1.80
2022-08-22T14:15:23.178Z,1.58
2022-08-22T14:17:56.649Z,1.63
2022-08-22T14:20:32.265Z,1.70
2022-08-22T14:23:08.083Z,1.90
2022-08-22T14:25:40.368Z,1.42
2022-08-22T14:28:12.080Z,1.73
2022-08-22T14:30:59.443Z,1.50
2022-08-22T14:33:35.707Z,1.70
2022-08-22T14:36:14.016Z,1.52
2022-08-22T14:38:47.056Z,1.52
2022-08-22T14:41:52.294Z,1.48
2022-08-22T14:44:23.390Z,1.42
2022-08-22T14:46:54.660Z,1.20
2022-08-22T14:49:36.015Z,1.20
2022-08-22T14:52:08.934Z,1.30
2022-08-22T14:54:38.811Z,1.67
2022-08-22T14:57:20.427Z,1.30
2022-08-22T14:59:53.196Z,1.45
2022-08-22T15:02:28.714Z,1.40
2022-08-22T15:05:01.447Z,1.40
2022-08-22T15:07:34.415Z,1.50
2022-08-22T15:10:07.106Z,1.50
2022-08-22T15:12:48.310Z,1.67
2022-08-22T15:15:30.391Z,1.50
2022-08-22T15:17:58.430Z,1.55
2022-08-22T15:20:34.161Z,1.40
2022-08-22T15:23:09.747Z,1.30
2022-08-22T15:25:42.181Z,1.42
2022-08-22T15:28:20.866Z,1.73
2022-08-22T15:30:59.975Z,1.40
2022-08-22T15:33:35.071Z,1.40
2022-08-22T15:36:15.870Z,1.52
2022-08-22T15:38:48.214Z,1.45
2022-08-22T15:41:47.912Z,1.63
2022-08-22T15:44:32.921Z,1.50
2022-08-22T15:47:12.082Z,1.38
2022-08-22T15:49:58.211Z,1.55
2022-08-22T15:52:29.961Z,1.38
2022-08-22T15:55:24.262Z,1.13
2022-08-22T15:58:02.803Z,1.50
2022-08-22T16:00:43.811Z,1.40
2022-08-22T16:03:24.470Z,1.27
2022-08-22T16:05:56.099Z,1.40
2022-08-22T16:08:29.653Z,1.55
2022-08-22T16:11:32.999Z,1.20
2022-08-22T16:14:21.369Z,1.33
2022-08-22T16:16:59.760Z,1.40
2022-08-22T16:19:30.051Z,1.45
2022-08-22T16:22:17.107Z,1.20
2022-08-22T16:25:10.175Z,1.33
2022-08-22T16:27:53.035Z,1.35
2022-08-22T16:30:34.641Z,1.42
2022-08-22T16:33:05.422Z,1.60
2022-08-22T16:36:22.368Z,1.42
2022-08-22T16:38:53.159Z,1.30
2022-08-22T16:41:34.451Z,1.58
2022-08-22T16:44:36.511Z,1.60
2022-08-22T16:47:15.011Z,1.48
2022-08-22T16:50:02.047Z,1.35
2022-08-22T16:52:55.501Z,1.33
2022-08-22T16:56:11.516Z,1.42
2022-08-22T16:59:22.523Z,1.50
2022-08-22T17:02:17.024Z,1.55
2022-08-22T17:04:53.962Z,1.33
2022-08-22T17:07:35.012Z,1.50
2022-08-22T17:10:33.241Z,1.40
2022-08-22T17:13:18.017Z,1.40
2022-08-22T17:16:01.681Z,1.25
2022-08-22T17:18:52.406Z,1.27
2022-08-22T17:21:25.989Z,1.50
2022-08-22T17:24:05.001Z,1.38
2022-08-22T17:26:46.867Z,1.42
2022-08-22T17:29:24.200Z,1.30
2022-08-22T17:31:56.769Z,1.50
2022-08-22T17:34:38.935Z,1.23
2022-08-22T17:37:18.124Z,1.42
2022-08-22T17:40:19.044Z,1.42
2022-08-22T17:43:05.775Z,1.45
2022-08-22T17:45:55.342Z,1.40
2022-08-22T17:48:28.283Z,1.48
2022-08-22T17:51:00.219Z,1.58
2022-08-22T17:53:34.008Z,1.70
2022-08-22T17:56:13.366Z,2.00
2022-08-22T17:58:46.606Z,1.52
2022-08-22T18:01:21.269Z,1.55
2022-08-22T18:04:00.139Z,1.63
2022-08-22T18:06:31.122Z,1.70
2022-08-22T18:09:16.612Z,1.27
2022-08-22T18:11:49.480Z,1.60
2022-08-22T18:14:30.655Z,1.58
2022-08-22T18:17:00.913Z,1.50
2022-08-22T18:19:43.145Z,1.42
2022-08-22T18:22:14.286Z,1.60
2022-08-22T18:24:49.541Z,1.67
2022-08-22T18:27:34.442Z,1.70
2022-08-22T18:30:15.493Z,1.60
2022-08-22T18:32:52.362Z,1.33
2022-08-22T18:35:26.058Z,1.52
2022-08-22T18:38:03.247Z,1.40
2022-08-22T18:40:51.423Z,1.50
2022-08-22T18:43:24.083Z,1.48
2022-08-22T18:46:03.922Z,1.60
2022-08-22T18:48:54.250Z,1.23
2022-08-22T18:51:30.621Z,1.40
2022-08-22T18:54:20.513Z,1.23
2022-08-22T18:56:54.147Z,1.57
2022-08-22T18:59:47.814Z,1.20
2022-08-22T19:02:50.999Z,1.57
2022-08-22T19:06:14.463Z,1.57
2022-08-22T19:09:04.471Z,1.47
2022-08-22T19:11:47.404Z,1.60
2022-08-22T19:14:30.439Z,1.60
2022-08-22T19:17:27.730Z,1.60
2022-08-22T19:20:20.943Z,1.70
2022-08-22T19:22:51.130Z,1.27
2022-08-22T19:25:25.987Z,1.80
2022-08-22T19:28:23.591Z,1.53
2022-08-22T19:30:53.127Z,1.43
2022-08-22T19:33:34.816Z,1.80
2022-08-22T19:36:11.899Z,1.43
2022-08-22T19:39:00.211Z,1.37
2022-08-22T19:41:53.492Z,1.63
2022-08-22T19:44:39.847Z,1.50
2022-08-22T19:47:26.847Z,1.50
2022-08-22T19:50:05.694Z,1.70
2022-08-22T19:53:00.235Z,1.70
2022-08-22T19:55:42.825Z,1.63
2022-08-22T19:58:31.729Z,1.60
2022-08-22T20:01:10.072Z,1.63
2022-08-22T20:03:49.653Z,1.43
2022-08-22T20:06:45.482Z,1.67
2022-08-22T20:09:27.522Z,1.40
2022-08-22T20:12:12.021Z,1.90
2022-08-22T20:14:44.898Z,1.50
2022-08-22T20:17:15.449Z,1.33
2022-08-22T20:22:43.342Z,1.60
2022-08-22T20:25:41.455Z,1.60
2022-08-22T20:28:09.230Z,1.63
2022-08-22T20:30:42.047Z,1.50
2022-08-22T20:33:14.648Z,1.70
2022-08-22T20:35:45.318Z,1.87
2022-08-22T20:38:17.611Z,1.70
2022-08-22T20:40:58.689Z,1.80
2022-08-22T20:43:34.396Z,1.60
2022-08-22T20:46:13.434Z,1.80
2022-08-22T20:48:44.874Z,1.80
2022-08-22T20:51:23.881Z,1.50
2022-08-22T20:53:53.467Z,1.60
2022-08-22T20:56:35.223Z,1.70
2022-08-22T20:59:18.718Z,1.57
2022-08-22T21:01:48.133Z,1.50
2022-08-22T21:04:20.813Z,1.77
2022-08-22T21:06:49.559Z,1.87
2022-08-22T21:09:35.841Z,1.80
2022-08-22T21:12:09.282Z,1.50
2022-08-22T21:14:44.458Z,1.73
2022-08-22T21:17:20.732Z,1.80
2022-08-22T21:19:49.097Z,1.60
2022-08-22T21:22:19.401Z,1.57
2022-08-22T21:24:47.532Z,1.90
2022-08-22T21:27:24.492Z,1.67
2022-08-22T21:29:52.704Z,1.50
2022-08-22T21:32:29.393Z,1.50
2022-08-22T21:34:57.867Z,1.47
2022-08-22T21:37:34.712Z,1.67
2022-08-22T21:40:08.586Z,1.77
2022-08-22T21:42:45.988Z,1.60
2022-08-22T21:45:28.521Z,1.83
2022-08-22T21:47:57.205Z,1.90
2022-08-22T21:50:37.886Z,1.53
2022-08-22T21:53:10.379Z,1.63
2022-08-22T21:55:44.296Z,1.90
2022-08-22T21:58:36.341Z,1.50
2022-08-22T22:01:30.570Z,1.63
2022-08-22T22:04:00.287Z,1.90
2022-08-22T22:06:28.531Z,1.50
2022-08-22T22:08:56.579Z,1.67
2022-08-22T22:11:24.585Z,1.70
2022-08-22T22:13:52.671Z,2.10
2022-08-22T22:16:26.497Z,1.70
2022-08-22T22:18:57.153Z,1.60
2022-08-22T22:21:25.307Z,1.70
2022-08-22T22:23:53.683Z,2.13
2022-08-22T22:26:26.972Z,1.90
2022-08-22T22:28:55.038Z,2.17
2022-08-22T22:31:23.113Z,2.00
2022-08-22T22:33:51.299Z,1.90
2022-08-22T22:36:24.654Z,2.20
2022-08-22T22:38:53.438Z,1.53
2022-08-22T22:41:25.281Z,2.00
2022-08-22T22:43:53.772Z,1.60
2022-08-22T22:46:22.162Z,2.07
2022-08-22T22:48:50.122Z,2.13
2022-08-22T22:51:18.186Z,1.90
2022-08-22T22:53:47.973Z,2.20
2022-08-22T22:56:18.145Z,1.97
2022-08-22T22:58:50.164Z,1.93
2022-08-22T23:01:27.951Z,1.73
2022-08-22T23:03:57.359Z,1.97
2022-08-22T23:06:27.207Z,2.20
2022-08-22T23:08:57.516Z,2.20
2022-08-22T23:11:27.666Z,1.97
2022-08-22T23:13:56.191Z,1.73
2022-08-22T23:16:27.263Z,1.90
2022-08-22T23:18:55.787Z,1.90
2022-08-22T23:21:26.388Z,1.90
2022-08-22T23:23:58.272Z,1.93
2022-08-22T23:26:26.741Z,2.20
2022-08-22T23:28:55.088Z,2.03
2022-08-22T23:31:30.003Z,2.20
2022-08-22T23:34:02.583Z,1.83
2022-08-22T23:36:30.607Z,1.97
2022-08-22T23:39:00.243Z,1.87
2022-08-22T23:41:29.003Z,1.90
2022-08-22T23:43:57.130Z,2.07
2022-08-22T23:46:26.991Z,1.93
2022-08-22T23:48:55.694Z,1.90
2022-08-22T23:51:25.623Z,2.10
2022-08-22T23:53:54.938Z,1.93
2022-08-22T23:56:30.614Z,2.00
2022-08-22T23:58:59.639Z,2.13
